Check out our new BloomSky Weather System.

Active alerts


No alerts


Thunder radar  blitzortung!


Rain radar more information rain snow radar


Visit our other weather sites:

Template documentation
and downloads

And another site



Weather Underground History page Text

Daily Summary for June 2, 2017 Units:  Metric    English   Both
« Previous Day
Next Day »
Daily Weekly Monthly Yearly Custom
  High: Low: Average:
Temperature: 30.6 °C 22.4 °C 26 °C
Dew Point: 26.1 °C 21.6 °C 23.8 °C
Humidity: 98 % 72 % 88 %
Wind Speed: 14.5 km/h 0 km/h 2.4 km/h
Wind Gust: 19.3 km/h - -
Wind:- - SE
Pressure: 1014.1 hPa 1010.4 hPa -
Precipitation: 0 mm    
Historical Graphs
 
 
Tabular Data for June 2, 2017
Time Temperature Dew Point Pressure Wind Wind Speed Wind Gust Humidity Rainfall Rate (Hourly)
00:02 24 °C 22.3 °C 1013.1 hPa Calm   1.6 km/h 90 % 0 mm
00:07 24 °C 22.3 °C 1013.1 hPa Calm     90 % 0 mm
00:12 23.9 °C 22.2 °C 1013.1 hPa Calm   1.6 km/h 90 % 0 mm
00:17 23.9 °C 22.2 °C 1013.1 hPa Calm   1.6 km/h 90 % 0 mm
00:22 23.8 °C 22.2 °C 1013.1 hPa Calm   1.6 km/h 91 % 0 mm
00:27 23.8 °C 22.2 °C 1012.8 hPa Calm   1.6 km/h 91 % 0 mm
00:32 23.6 °C 22 °C 1012.8 hPa Calm     91 % 0 mm
00:37 23.6 °C 22 °C 1013.1 hPa Calm     91 % 0 mm
00:42 23.5 °C 22.1 °C 1013.1 hPa Calm   1.6 km/h 92 % 0 mm
00:47 23.4 °C 22 °C 1012.8 hPa Calm   1.6 km/h 92 % 0 mm
00:52 23.4 °C 22 °C 1012.8 hPa Calm   1.6 km/h 92 % 0 mm
00:57 23.4 °C 22 °C 1012.8 hPa Calm   1.6 km/h 92 % 0 mm
01:02 23.4 °C 22.2 °C 1012.8 hPa Calm   1.6 km/h 93 % 0 mm
01:07 23.4 °C 22.2 °C 1013.1 hPa Calm   1.6 km/h 93 % 0 mm
01:12 23.4 °C 22.2 °C 1012.8 hPa Calm   1.6 km/h 93 % 0 mm
01:17 23.3 °C 22.1 °C 1013.1 hPa Calm   1.6 km/h 93 % 0 mm
01:22 23.3 °C 22.1 °C 1012.8 hPa Calm     93 % 0 mm
01:27 23.3 °C 22.1 °C 1013.1 hPa Calm     93 % 0 mm
01:28 23.3 °C 22.1 °C 1012.8 hPa Calm     93 % 0 mm
01:33 23.2 °C 22 °C 1012.8 hPa Calm     93 % 0 mm
01:38 23.1 °C 21.9 °C 1012.8 hPa Calm     93 % 0 mm
01:43 23 °C 21.8 °C 1013.1 hPa Calm     93 % 0 mm
01:45 22.9 °C 21.7 °C 1012.8 hPa Calm     93 % 0 mm
01:50 22.9 °C 21.9 °C 1012.8 hPa Calm     94 % 0 mm
01:55 22.8 °C 21.8 °C 1012.8 hPa Calm     94 % 0 mm
02:00 22.8 °C 21.8 °C 1012.8 hPa Calm   1.6 km/h 94 % 0 mm
02:05 22.8 °C 21.8 °C 1012.8 hPa Calm   1.6 km/h 94 % 0 mm
02:10 22.7 °C 21.7 °C 1012.8 hPa Calm   1.6 km/h 94 % 0 mm
02:15 22.7 °C 21.9 °C 1012.8 hPa Calm     95 % 0 mm
02:20 22.7 °C 21.9 °C 1012.4 hPa Calm     95 % 0 mm
02:25 22.6 °C 21.8 °C 1012.4 hPa Calm     95 % 0 mm
02:30 22.6 °C 21.8 °C 1012.4 hPa Calm     95 % 0 mm
02:35 22.5 °C 21.7 °C 1012.4 hPa Calm     95 % 0 mm
02:40 22.4 °C 21.6 °C 1012.4 hPa Calm     95 % 0 mm
02:45 22.5 °C 21.7 °C 1012.4 hPa Calm     95 % 0 mm
02:50 22.4 °C 21.6 °C 1012.4 hPa Calm     95 % 0 mm
02:55 22.5 °C 21.8 °C 1012.4 hPa Calm     96 % 0 mm
03:00 22.6 °C 21.9 °C 1012.1 hPa Calm     96 % 0 mm
03:05 22.6 °C 21.9 °C 1012.4 hPa Calm   1.6 km/h 96 % 0 mm
03:10 22.6 °C 21.9 °C 1012.4 hPa Calm   1.6 km/h 96 % 0 mm
03:15 22.6 °C 21.9 °C 1012.4 hPa Calm   1.6 km/h 96 % 0 mm
03:20 22.6 °C 21.9 °C 1012.4 hPa Calm   1.6 km/h 96 % 0 mm
03:21 22.7 °C 22 °C 1012.4 hPa Calm   1.6 km/h 96 % 0 mm
03:26 22.7 °C 22 °C 1012.4 hPa Calm     96 % 0 mm
03:31 22.6 °C 21.9 °C 1012.4 hPa Calm     96 % 0 mm
03:36 22.6 °C 21.9 °C 1012.4 hPa Calm     96 % 0 mm
03:41 22.7 °C 22 °C 1012.4 hPa Calm   1.6 km/h 96 % 0 mm
03:46 22.7 °C 22 °C 1012.4 hPa Calm   1.6 km/h 96 % 0 mm
03:51 22.8 °C 22.3 °C 1012.1 hPa Calm   1.6 km/h 97 % 0 mm
03:56 22.8 °C 22.3 °C 1012.4 hPa Calm     97 % 0 mm
04:01 22.9 °C 22.4 °C 1012.4 hPa Calm     97 % 0 mm
04:06 22.9 °C 22.4 °C 1012.4 hPa Calm     97 % 0 mm
04:11 23 °C 22.5 °C 1012.1 hPa Calm   1.6 km/h 97 % 0 mm
04:16 23.1 °C 22.6 °C 1012.1 hPa Calm   1.6 km/h 97 % 0 mm
04:21 23.1 °C 22.6 °C 1012.1 hPa Calm   1.6 km/h 97 % 0 mm
04:26 23.2 °C 22.7 °C 1012.1 hPa Calm   1.6 km/h 97 % 0 mm
04:31 23.2 °C 22.7 °C 1012.1 hPa Calm   1.6 km/h 97 % 0 mm
04:37 23.3 °C 22.8 °C 1012.1 hPa Calm   1.6 km/h 97 % 0 mm
04:42 23.3 °C 22.8 °C 1012.1 hPa Calm   1.6 km/h 97 % 0 mm
04:47 23.4 °C 22.9 °C 1012.4 hPa Calm   3.2 km/h 97 % 0 mm
04:52 23.4 °C 22.9 °C 1012.1 hPa Calm   3.2 km/h 97 % 0 mm
04:57 23.4 °C 22.9 °C 1012.4 hPa Calm   3.2 km/h 97 % 0 mm
05:02 23.5 °C 23 °C 1012.4 hPa Calm   1.6 km/h 97 % 0 mm
05:07 23.5 °C 23 °C 1012.4 hPa Calm   1.6 km/h 97 % 0 mm
05:12 23.6 °C 23.1 °C 1012.4 hPa Calm   1.6 km/h 97 % 0 mm
05:17 23.6 °C 23.1 °C 1012.1 hPa Calm   3.2 km/h 97 % 0 mm
05:22 23.6 °C 23.1 °C 1012.1 hPa Calm   3.2 km/h 97 % 0 mm
05:27 23.6 °C 23.1 °C 1012.4 hPa Calm   3.2 km/h 97 % 0 mm
05:32 23.6 °C 23.1 °C 1012.4 hPa Calm   3.2 km/h 97 % 0 mm
05:37 23.6 °C 23.1 °C 1012.4 hPa Calm   1.6 km/h 97 % 0 mm
05:42 23.6 °C 23.1 °C 1012.4 hPa Calm   1.6 km/h 97 % 0 mm
05:47 23.7 °C 23.4 °C 1012.4 hPa Calm   1.6 km/h 98 % 0 mm
05:52 23.7 °C 23.2 °C 1012.8 hPa Calm   1.6 km/h 97 % 0 mm
05:57 23.6 °C 23.1 °C 1012.4 hPa Calm   1.6 km/h 97 % 0 mm
06:02 23.7 °C 23.4 °C 1012.8 hPa East 1.6 km/h 1.6 km/h 98 % 0 mm
06:07 23.7 °C 23.4 °C 1012.8 hPa Calm   4.8 km/h 98 % 0 mm
06:12 23.7 °C 23.4 °C 1012.8 hPa Calm   4.8 km/h 98 % 0 mm
06:17 23.7 °C 23.4 °C 1012.8 hPa Calm   4.8 km/h 98 % 0 mm
06:22 23.7 °C 23.4 °C 1012.8 hPa Calm   1.6 km/h 98 % 0 mm
06:27 23.8 °C 23.5 °C 1012.8 hPa Calm   1.6 km/h 98 % 0 mm
06:32 23.8 °C 23.5 °C 1012.8 hPa Calm   1.6 km/h 98 % 0 mm
06:37 23.8 °C 23.5 °C 1012.8 hPa Calm   1.6 km/h 98 % 0 mm
06:42 23.8 °C 23.5 °C 1012.8 hPa Calm   1.6 km/h 98 % 0 mm
06:47 23.8 °C 23.5 °C 1012.8 hPa Calm   1.6 km/h 98 % 0 mm
06:52 23.8 °C 23.5 °C 1013.1 hPa Calm   1.6 km/h 98 % 0 mm
06:57 23.8 °C 23.5 °C 1013.1 hPa Calm   1.6 km/h 98 % 0 mm
07:02 23.9 °C 23.6 °C 1013.1 hPa North 1.6 km/h 1.6 km/h 98 % 0 mm
07:07 23.9 °C 23.6 °C 1013.1 hPa Calm   1.6 km/h 98 % 0 mm
07:12 23.9 °C 23.6 °C 1013.1 hPa Calm   3.2 km/h 98 % 0 mm
07:17 24 °C 23.7 °C 1013.1 hPa Calm   3.2 km/h 98 % 0 mm
07:22 24.1 °C 23.8 °C 1013.1 hPa Calm   3.2 km/h 98 % 0 mm
07:27 24.1 °C 23.8 °C 1013.1 hPa Calm   1.6 km/h 98 % 0 mm
07:32 24.1 °C 23.8 °C 1013.4 hPa Calm   1.6 km/h 98 % 0 mm
07:37 24.2 °C 23.9 °C 1013.4 hPa Calm   3.2 km/h 98 % 0 mm
07:42 24.2 °C 23.9 °C 1013.4 hPa Calm   3.2 km/h 98 % 0 mm
07:47 24.3 °C 24 °C 1013.4 hPa North 1.6 km/h 3.2 km/h 98 % 0 mm
07:52 24.4 °C 24.1 °C 1013.4 hPa Calm   3.2 km/h 98 % 0 mm
07:57 24.5 °C 24.2 °C 1013.4 hPa Calm   3.2 km/h 98 % 0 mm
08:02 24.5 °C 24.2 °C 1013.4 hPa Calm   3.2 km/h 98 % 0 mm
08:07 24.5 °C 24.2 °C 1013.4 hPa Calm   3.2 km/h 98 % 0 mm
08:12 24.6 °C 24.3 °C 1013.4 hPa East 1.6 km/h 3.2 km/h 98 % 0 mm
08:17 24.9 °C 24.6 °C 1013.4 hPa North 3.2 km/h 3.2 km/h 98 % 0 mm
08:22 25 °C 24.7 °C 1013.8 hPa Calm   3.2 km/h 98 % 0 mm
08:27 24.9 °C 24.4 °C 1013.4 hPa NNE 3.2 km/h 3.2 km/h 97 % 0 mm
08:32 25 °C 24.5 °C 1013.4 hPa Calm   3.2 km/h 97 % 0 mm
08:37 25 °C 24.5 °C 1013.8 hPa Calm   4.8 km/h 97 % 0 mm
08:42 24.9 °C 24.4 °C 1013.8 hPa NE 1.6 km/h 4.8 km/h 97 % 0 mm
08:47 24.9 °C 24.4 °C 1013.8 hPa Calm   8 km/h 97 % 0 mm
08:52 25.1 °C 24.6 °C 1013.8 hPa Calm   8 km/h 97 % 0 mm
08:57 25.2 °C 24.7 °C 1013.8 hPa Calm   8 km/h 97 % 0 mm
09:02 25.2 °C 24.5 °C 1013.8 hPa North 1.6 km/h 3.2 km/h 96 % 0 mm
09:07 25.2 °C 24.5 °C 1013.8 hPa WNW 1.6 km/h 4.8 km/h 96 % 0 mm
09:12 25.3 °C 24.6 °C 1013.8 hPa Calm   4.8 km/h 96 % 0 mm
09:17 25.3 °C 24.4 °C 1013.8 hPa Calm   4.8 km/h 95 % 0 mm
09:22 25.3 °C 24.4 °C 1013.8 hPa Calm   4.8 km/h 95 % 0 mm
09:27 25.3 °C 24.4 °C 1013.8 hPa NW 3.2 km/h 6.4 km/h 95 % 0 mm
09:32 25.3 °C 24.3 °C 1014.1 hPa North 3.2 km/h 6.4 km/h 94 % 0 mm
09:37 25.3 °C 24.3 °C 1013.8 hPa NW 1.6 km/h 6.4 km/h 94 % 0 mm
09:42 25.4 °C 24.5 °C 1013.8 hPa NW 1.6 km/h 6.4 km/h 95 % 0 mm
09:47 25.4 °C 24.4 °C 1014.1 hPa Calm   4.8 km/h 94 % 0 mm
09:52 25.3 °C 24.3 °C 1014.1 hPa NNW 3.2 km/h 6.4 km/h 94 % 0 mm
09:57 25.3 °C 24.3 °C 1014.1 hPa NW 1.6 km/h 6.4 km/h 94 % 0 mm
10:02 25.4 °C 24.4 °C 1014.1 hPa Calm   6.4 km/h 94 % 0 mm
10:07 25.5 °C 24.5 °C 1014.1 hPa Calm   6.4 km/h 94 % 0 mm
10:12 25.7 °C 24.7 °C 1013.8 hPa NW 1.6 km/h 4.8 km/h 94 % 0 mm
10:17 25.9 °C 24.9 °C 1013.8 hPa North 4.8 km/h 8 km/h 94 % 0 mm
10:22 26.1 °C 24.9 °C 1014.1 hPa NNE 3.2 km/h 8 km/h 93 % 0 mm
10:27 26.4 °C 24.8 °C 1014.1 hPa NNW 3.2 km/h 9.7 km/h 91 % 0 mm
10:28 26.4 °C 24.8 °C 1014.1 hPa NE 6.4 km/h 9.7 km/h 91 % 0 mm
10:33 26.8 °C 25.2 °C 1014.1 hPa ENE 1.6 km/h 11.3 km/h 91 % 0 mm
10:38 27.2 °C 25.2 °C 1014.1 hPa East 3.2 km/h 11.3 km/h 89 % 0 mm
10:43 27.4 °C 25 °C 1014.1 hPa NW 4.8 km/h 11.3 km/h 87 % 0 mm
10:48 27.6 °C 25.2 °C 1014.1 hPa ENE 3.2 km/h 9.7 km/h 87 % 0 mm
10:49 27.6 °C 25 °C 1014.1 hPa ENE 3.2 km/h 9.7 km/h 86 % 0 mm
10:54 27.8 °C 25.4 °C 1014.1 hPa WNW 6.4 km/h 9.7 km/h 87 % 0 mm
11:00 28.3 °C 25.5 °C 1013.8 hPa East 3.2 km/h 11.3 km/h 85 % 0 mm
11:05 28.4 °C 25.2 °C 1013.8 hPa East 6.4 km/h 11.3 km/h 83 % 0 mm
11:10 28.6 °C 25.4 °C 1013.8 hPa Calm   12.9 km/h 83 % 0 mm
11:15 28.7 °C 25.3 °C 1013.8 hPa North 4.8 km/h 12.9 km/h 82 % 0 mm
11:17 28.6 °C 25.2 °C 1013.8 hPa NW 1.6 km/h 12.9 km/h 82 % 0 mm
11:22 28.8 °C 25.4 °C 1013.8 hPa Calm   9.7 km/h 82 % 0 mm
11:27 29 °C 25.2 °C 1013.8 hPa NNW 8 km/h 9.7 km/h 80 % 0 mm
11:32 28.9 °C 25.3 °C 1013.8 hPa NE 4.8 km/h 11.3 km/h 81 % 0 mm
11:37 29.2 °C 25.6 °C 1013.8 hPa ENE 3.2 km/h 11.3 km/h 81 % 0 mm
11:42 29.1 °C 25.5 °C 1013.8 hPa NNW 9.7 km/h 11.3 km/h 81 % 0 mm
11:47 28.8 °C 25 °C 1013.8 hPa NNE 8 km/h 11.3 km/h 80 % 0 mm
11:52 28.7 °C 25.1 °C 1013.8 hPa ESE 8 km/h 11.3 km/h 81 % 0 mm
11:57 28.7 °C 24.9 °C 1013.8 hPa NE 4.8 km/h 11.3 km/h 80 % 0 mm
12:02 28.4 °C 24.8 °C 1013.8 hPa ENE 1.6 km/h 9.7 km/h 81 % 0 mm
12:07 28.4 °C 25 °C 1013.4 hPa SSE 1.6 km/h 11.3 km/h 82 % 0 mm
12:12 28.2 °C 25 °C 1013.1 hPa SSE 8 km/h 11.3 km/h 83 % 0 mm
12:17 27.9 °C 25.5 °C 1013.1 hPa SE 6.4 km/h 12.9 km/h 87 % 0 mm
12:22 27.4 °C 24.8 °C 1013.1 hPa SE 6.4 km/h 12.9 km/h 86 % 0 mm
12:27 26.9 °C 24.5 °C 1012.8 hPa SE 3.2 km/h 12.9 km/h 87 % 0 mm
12:32 26.9 °C 24.7 °C 1013.1 hPa Calm   11.3 km/h 88 % 0 mm
12:37 26.9 °C 24.7 °C 1013.4 hPa Calm   11.3 km/h 88 % 0 mm
12:42 26.9 °C 24.5 °C 1013.4 hPa ESE 1.6 km/h 6.4 km/h 87 % 0 mm
12:47 27 °C 24.6 °C 1013.1 hPa ENE 3.2 km/h 4.8 km/h 87 % 0 mm
12:52 27.1 °C 24.7 °C 1013.1 hPa Calm   4.8 km/h 87 % 0 mm
12:57 27.1 °C 24.7 °C 1013.4 hPa Calm   6.4 km/h 87 % 0 mm
13:02 27.1 °C 24.7 °C 1013.4 hPa NE 3.2 km/h 6.4 km/h 87 % 0 mm
13:07 27 °C 24.8 °C 1013.1 hPa SE 1.6 km/h 6.4 km/h 88 % 0 mm
13:12 27.1 °C 24.9 °C 1013.1 hPa Calm   6.4 km/h 88 % 0 mm
13:18 27.2 °C 25 °C 1013.1 hPa Calm   6.4 km/h 88 % 0 mm
13:23 27.6 °C 25.2 °C 1012.8 hPa Calm   6.4 km/h 87 % 0 mm
13:28 28.2 °C 26 °C 1012.8 hPa Calm   6.4 km/h 88 % 0 mm
13:33 28.8 °C 25.4 °C 1012.8 hPa ENE 3.2 km/h 6.4 km/h 82 % 0 mm
13:35 29.1 °C 25.7 °C 1012.8 hPa Calm   8 km/h 82 % 0 mm
13:40 29.7 °C 25.9 °C 1012.4 hPa ESE 1.6 km/h 11.3 km/h 80 % 0 mm
13:45 29.8 °C 25.5 °C 1012.4 hPa East 1.6 km/h 12.9 km/h 78 % 0 mm
13:50 29.8 °C 25.1 °C 1012.4 hPa ENE 1.6 km/h 12.9 km/h 76 % 0 mm
13:55 29.9 °C 25.4 °C 1012.4 hPa ESE 1.6 km/h 12.9 km/h 77 % 0 mm
14:00 30 °C 25.3 °C 1012.4 hPa ENE 3.2 km/h 11.3 km/h 76 % 0 mm
14:05 30.1 °C 25.2 °C 1012.4 hPa ENE 1.6 km/h 11.3 km/h 75 % 0 mm
14:10 30.2 °C 25.7 °C 1012.4 hPa North 4.8 km/h 11.3 km/h 77 % 0 mm
14:15 30.3 °C 24.9 °C 1012.1 hPa SE 3.2 km/h 9.7 km/h 73 % 0 mm
14:20 30.4 °C 25.2 °C 1012.1 hPa NE 3.2 km/h 12.9 km/h 74 % 0 mm
14:25 30.6 °C 25 °C 1012.1 hPa NNW 6.4 km/h 12.9 km/h 72 % 0 mm
14:30 30.2 °C 25 °C 1012.1 hPa North 6.4 km/h 14.5 km/h 74 % 0 mm
14:35 29.8 °C 25.1 °C 1012.1 hPa WNW 8 km/h 14.5 km/h 76 % 0 mm
14:40 29.4 °C 24.7 °C 1011.7 hPa East 11.3 km/h 14.5 km/h 76 % 0 mm
14:45 29.2 °C 24.7 °C 1011.7 hPa Calm   12.9 km/h 77 % 0 mm
14:50 29 °C 24.8 °C 1011.7 hPa ESE 4.8 km/h 11.3 km/h 78 % 0 mm
14:51 28.9 °C 24.9 °C 1011.7 hPa SE 3.2 km/h 11.3 km/h 79 % 0 mm
14:56 29.1 °C 25.5 °C 1011.7 hPa East 9.7 km/h 11.3 km/h 81 % 0 mm
15:01 29.2 °C 26 °C 1011.7 hPa Calm   9.7 km/h 83 % 0 mm
15:07 29.3 °C 26.1 °C 1011.7 hPa SE 3.2 km/h 9.7 km/h 83 % 0 mm
15:12 29.6 °C 25.1 °C 1011.7 hPa East 14.5 km/h 14.5 km/h 77 % 0 mm
15:17 29.6 °C 24.5 °C 1011.7 hPa SE 12.9 km/h 17.7 km/h 74 % 0 mm
15:22 29.3 °C 24.4 °C 1011.7 hPa SE 8 km/h 17.7 km/h 75 % 0 mm
15:27 29 °C 24.1 °C 1011.7 hPa SE 6.4 km/h 19.3 km/h 75 % 0 mm
15:32 28.8 °C 24.4 °C 1011.7 hPa ESE 6.4 km/h 19.3 km/h 77 % 0 mm
15:37 28.7 °C 24.5 °C 1011.7 hPa ESE 3.2 km/h 19.3 km/h 78 % 0 mm
15:38 28.7 °C 24.5 °C 1011.7 hPa East 9.7 km/h 19.3 km/h 78 % 0 mm
15:42 28.6 °C 24.4 °C 1011.7 hPa ESE 9.7 km/h 19.3 km/h 78 % 0 mm
15:47 28.3 °C 24.3 °C 1011.7 hPa ESE 9.7 km/h 17.7 km/h 79 % 0 mm
15:52 28.2 °C 24.4 °C 1011.4 hPa ESE 9.7 km/h 17.7 km/h 80 % 0 mm
15:57 28.3 °C 24.5 °C 1011.4 hPa SSE 4.8 km/h 17.7 km/h 80 % 0 mm
16:02 28.3 °C 24.3 °C 1011.4 hPa SE 11.3 km/h 17.7 km/h 79 % 0 mm
16:07 28.2 °C 24.2 °C 1011.4 hPa SSE 9.7 km/h 17.7 km/h 79 % 0 mm
16:12 28.1 °C 24.3 °C 1011.4 hPa SE 6.4 km/h 17.7 km/h 80 % 0 mm
16:17 28.1 °C 24.1 °C 1011.4 hPa East 9.7 km/h 17.7 km/h 79 % 0 mm
16:22 28 °C 24 °C 1011.1 hPa ESE 8 km/h 14.5 km/h 79 % 0 mm
16:27 27.9 °C 23.7 °C 1011.1 hPa ESE 6.4 km/h 14.5 km/h 78 % 0 mm
16:32 27.9 °C 23.7 °C 1011.1 hPa ENE 4.8 km/h 14.5 km/h 78 % 0 mm
16:37 27.8 °C 23.6 °C 1011.1 hPa East 6.4 km/h 12.9 km/h 78 % 0 mm
16:43 27.8 °C 23.8 °C 1010.7 hPa ENE 4.8 km/h 14.5 km/h 79 % 0 mm
16:48 27.8 °C 24 °C 1010.7 hPa SE 14.5 km/h 14.5 km/h 80 % 0 mm
16:53 27.8 °C 24.6 °C 1010.7 hPa ESE 1.6 km/h 17.7 km/h 83 % 0 mm
16:58 27.7 °C 24.7 °C 1010.7 hPa SE 6.4 km/h 17.7 km/h 84 % 0 mm
17:03 27.6 °C 24.8 °C 1011.1 hPa SE 4.8 km/h 17.7 km/h 85 % 0 mm
17:08 27.8 °C 25 °C 1011.1 hPa East 3.2 km/h 14.5 km/h 85 % 0 mm
17:13 27.9 °C 24.9 °C 1011.1 hPa Calm   14.5 km/h 84 % 0 mm
17:18 28.2 °C 25 °C 1011.1 hPa ESE 9.7 km/h 12.9 km/h 83 % 0 mm
17:23 28.2 °C 24.6 °C 1011.1 hPa SE 6.4 km/h 12.9 km/h 81 % 0 mm
17:28 28.1 °C 24.5 °C 1010.7 hPa South 1.6 km/h 12.9 km/h 81 % 0 mm
17:33 28.1 °C 24.7 °C 1011.1 hPa East 8 km/h 12.9 km/h 82 % 0 mm
17:38 28.2 °C 24.8 °C 1010.7 hPa SE 8 km/h 12.9 km/h 82 % 0 mm
17:43 28.3 °C 24.7 °C 1010.7 hPa East 9.7 km/h 11.3 km/h 81 % 0 mm
17:48 28.4 °C 24.6 °C 1010.7 hPa SSE 4.8 km/h 16.1 km/h 80 % 0 mm
17:53 28.6 °C 24.8 °C 1010.7 hPa SSE 6.4 km/h 16.1 km/h 80 % 0 mm
17:58 28.8 °C 24.8 °C 1010.7 hPa ESE 8 km/h 16.1 km/h 79 % 0 mm
18:03 28.8 °C 24.6 °C 1010.7 hPa East 8 km/h 16.1 km/h 78 % 0 mm
18:08 28.7 °C 24.3 °C 1010.7 hPa SSE 9.7 km/h 19.3 km/h 77 % 0 mm
18:13 28.9 °C 24.2 °C 1010.7 hPa SSE 11.3 km/h 19.3 km/h 76 % 0 mm
18:18 29.1 °C 24.4 °C 1010.7 hPa ESE 14.5 km/h 19.3 km/h 76 % 0 mm
18:23 28.9 °C 24.2 °C 1010.4 hPa ESE 12.9 km/h 14.5 km/h 76 % 0 mm
18:28 28.9 °C 24 °C 1010.4 hPa SSE 11.3 km/h 19.3 km/h 75 % 0 mm
18:33 28.7 °C 24 °C 1010.4 hPa SE 6.4 km/h 19.3 km/h 76 % 0 mm
18:38 28.7 °C 24.3 °C 1010.4 hPa ESE 8 km/h 19.3 km/h 77 % 0 mm
18:43 28.7 °C 24 °C 1010.4 hPa SE 3.2 km/h 19.3 km/h 76 % 0 mm
18:48 28.8 °C 24.1 °C 1010.4 hPa ENE 1.6 km/h 14.5 km/h 76 % 0 mm
18:53 28.8 °C 24.1 °C 1010.4 hPa SE 3.2 km/h 14.5 km/h 76 % 0 mm
18:58 28.7 °C 24 °C 1010.4 hPa SE 6.4 km/h 12.9 km/h 76 % 0 mm
19:03 28.6 °C 23.9 °C 1010.4 hPa SE 4.8 km/h 16.1 km/h 76 % 0 mm
19:08 28.6 °C 23.9 °C 1010.4 hPa SE 3.2 km/h 17.7 km/h 76 % 0 mm
19:13 28.5 °C 23.9 °C 1010.4 hPa NW 3.2 km/h 17.7 km/h 76 % 0 mm
19:18 28.4 °C 23.8 °C 1010.4 hPa SE 9.7 km/h 17.7 km/h 76 % 0 mm
19:23 28.3 °C 23.9 °C 1010.4 hPa SE 4.8 km/h 16.1 km/h 77 % 0 mm
19:28 28.2 °C 23.8 °C 1010.4 hPa SE 1.6 km/h 12.9 km/h 77 % 0 mm
19:33 28.1 °C 23.9 °C 1010.7 hPa SE 3.2 km/h 12.9 km/h 78 % 0 mm
19:38 28 °C 23.8 °C 1010.7 hPa East 6.4 km/h 11.3 km/h 78 % 0 mm
19:43 27.9 °C 23.7 °C 1010.7 hPa SE 6.4 km/h 11.3 km/h 78 % 0 mm
19:48 27.9 °C 23.7 °C 1010.7 hPa SE 6.4 km/h 12.9 km/h 78 % 0 mm
19:53 27.8 °C 23.8 °C 1010.7 hPa ESE 6.4 km/h 12.9 km/h 79 % 0 mm
19:59 27.7 °C 23.9 °C 1010.7 hPa Calm   12.9 km/h 80 % 0 mm
20:04 27.6 °C 24 °C 1010.7 hPa Calm   9.7 km/h 81 % 0 mm
20:09 27.5 °C 23.9 °C 1010.7 hPa Calm   9.7 km/h 81 % 0 mm
20:14 27.3 °C 24 °C 1010.7 hPa Calm   6.4 km/h 82 % 0 mm
20:19 27.2 °C 24.1 °C 1010.7 hPa Calm   6.4 km/h 83 % 0 mm
20:24 27.1 °C 24 °C 1010.7 hPa East 1.6 km/h 6.4 km/h 83 % 0 mm
20:29 27 °C 24.1 °C 1010.7 hPa North 1.6 km/h 8 km/h 84 % 0 mm
20:34 26.9 °C 24 °C 1010.7 hPa ESE 3.2 km/h 8 km/h 84 % 0 mm
20:39 26.8 °C 24.1 °C 1010.7 hPa Calm   8 km/h 85 % 0 mm
20:44 26.7 °C 24 °C 1010.7 hPa SE 1.6 km/h 8 km/h 85 % 0 mm
20:49 26.7 °C 24 °C 1011.1 hPa Calm   6.4 km/h 85 % 0 mm
20:54 26.6 °C 24.1 °C 1011.1 hPa East 1.6 km/h 4.8 km/h 86 % 0 mm
20:59 26.6 °C 24.1 °C 1011.1 hPa ESE 1.6 km/h 4.8 km/h 86 % 0 mm
21:04 26.5 °C 24 °C 1011.1 hPa ESE 1.6 km/h 4.8 km/h 86 % 0 mm
21:09 26.4 °C 24.1 °C 1011.1 hPa Calm   4.8 km/h 87 % 0 mm
21:14 26.4 °C 24.1 °C 1011.1 hPa Calm   4.8 km/h 87 % 0 mm
21:19 26.3 °C 24 °C 1011.1 hPa ENE 1.6 km/h 4.8 km/h 87 % 0 mm
21:24 26.3 °C 24.2 °C 1011.1 hPa Calm   4.8 km/h 88 % 0 mm
21:29 26.3 °C 24.2 °C 1011.1 hPa ESE 3.2 km/h 4.8 km/h 88 % 0 mm
21:34 26.2 °C 24.1 °C 1011.1 hPa Calm   4.8 km/h 88 % 0 mm
21:39 26.2 °C 24.1 °C 1011.1 hPa Calm   6.4 km/h 88 % 0 mm
21:44 26.1 °C 24 °C 1011.1 hPa Calm   6.4 km/h 88 % 0 mm
21:49 26.1 °C 24.1 °C 1011.1 hPa SE 1.6 km/h 6.4 km/h 89 % 0 mm
21:54 26.1 °C 24.1 °C 1011.4 hPa SE 1.6 km/h 3.2 km/h 89 % 0 mm
21:59 26.1 °C 24.1 °C 1011.4 hPa SE 3.2 km/h 4.8 km/h 89 % 0 mm
22:04 26 °C 24 °C 1011.7 hPa East 4.8 km/h 6.4 km/h 89 % 0 mm
22:09 26 °C 24 °C 1011.7 hPa SE 4.8 km/h 6.4 km/h 89 % 0 mm
22:14 26 °C 24 °C 1011.7 hPa SE 1.6 km/h 6.4 km/h 89 % 0 mm
22:19 25.9 °C 23.9 °C 1011.7 hPa Calm   6.4 km/h 89 % 0 mm
22:24 25.9 °C 23.9 °C 1011.7 hPa Calm   6.4 km/h 89 % 0 mm
22:29 25.8 °C 23.8 °C 1011.7 hPa East 1.6 km/h 6.4 km/h 89 % 0 mm
22:34 25.7 °C 23.7 °C 1011.7 hPa Calm   3.2 km/h 89 % 0 mm
22:39 25.6 °C 23.6 °C 1011.7 hPa Calm   3.2 km/h 89 % 0 mm
22:44 25.6 °C 23.8 °C 1011.7 hPa Calm   3.2 km/h 90 % 0 mm
22:49 25.5 °C 23.7 °C 1012.1 hPa Calm   1.6 km/h 90 % 0 mm
22:54 25.4 °C 23.6 °C 1012.1 hPa Calm   1.6 km/h 90 % 0 mm
22:59 25.4 °C 23.6 °C 1012.4 hPa Calm   1.6 km/h 90 % 0 mm
23:04 25.3 °C 23.5 °C 1012.4 hPa Calm   1.6 km/h 90 % 0 mm
23:09 25.2 °C 23.6 °C 1012.4 hPa Calm   1.6 km/h 91 % 0 mm
23:14 25.2 °C 23.6 °C 1012.4 hPa Calm   1.6 km/h 91 % 0 mm
23:20 25.2 °C 23.6 °C 1012.4 hPa Calm   1.6 km/h 91 % 0 mm
23:25 25.1 °C 23.5 °C 1012.4 hPa Calm   1.6 km/h 91 % 0 mm
23:30 25.1 °C 23.5 °C 1012.4 hPa Calm   1.6 km/h 91 % 0 mm
23:35 25 °C 23.6 °C 1012.4 hPa Calm   1.6 km/h 92 % 0 mm
23:40 25 °C 23.6 °C 1012.4 hPa Calm   1.6 km/h 92 % 0 mm
23:45 24.9 °C 23.5 °C 1012.4 hPa Calm   1.6 km/h 92 % 0 mm
23:50 24.8 °C 23.4 °C 1012.4 hPa Calm   1.6 km/h 92 % 0 mm
23:55 24.7 °C 23.3 °C 1012.4 hPa Calm   1.6 km/h 92 % 0 mm
Spring, Texas: Villages of Bridgestone
Compliments of Weather Underground - 2.75 mb

Script developed by  Jim McMurry - jmcmurry@mwt.net Adapted for the template by  Wim van der Kuil - Leuven-Template.eu

You find our weather info also at:

UK Metoffice

WeatherCloud

Weather Underground

Mid-South Weather Network

AWEKAS

Citizen Weather Observer Program (CWOP)

HAMweather, WeatherForYou, PWS Weather

Equipment we use:

Weather-station
Davis Vantage Vue

Weather-program
Meteohub

Weather-server
Debian 7.9 x86 (Guest)

Provider
DreamHost

Davis Vantage Vue

Meteohub

Debian 7.9 x86 (Guest)

DreamHost